Terminal Aerodrome Forecast
Issued by NWS Pendleton, OR

Home | Current Version | Previous Version | Text Only | Print | Product List | Glossary On
Versions: 1 2 3 4 5 6 7 8 9 10 11 12 13 14
000
FTUS46 KPDT 281120
TAFPDT
TAF
KPDT 281120Z 2812/2912 17006KT P6SM BKN060 OVC080
     FM281700 26011KT P6SM SCT060 BKN080
     FM290300 20005KT P6SM OVC070
     FM290800 18006KT P6SM -SHRA BKN050 OVC070=

USA.gov is the U.S. government's official web portal to all federal, state and local government web resources and services.